sensor_id;sensor_type;location;lat;lon;timestamp;P1;durP1;ratioP1;P2;durP2;ratioP2
52554;SDS011;38455;52.710;6.502;2023-07-02T00:00:28;7.63;;;4.03;;
52554;SDS011;38455;52.710;6.502;2023-07-02T00:02:54;8.05;;;4.60;;
52554;SDS011;38455;52.710;6.502;2023-07-02T00:05:20;9.73;;;5.47;;
52554;SDS011;38455;52.710;6.502;2023-07-02T00:07:46;10.15;;;4.40;;
52554;SDS011;38455;52.710;6.502;2023-07-02T00:10:11;7.75;;;4.20;;
52554;SDS011;38455;52.710;6.502;2023-07-02T00:12:37;6.93;;;5.13;;
52554;SDS011;38455;52.710;6.502;2023-07-02T00:15:03;9.25;;;4.78;;
52554;SDS011;38455;52.710;6.502;2023-07-02T00:17:29;10.55;;;4.57;;
52554;SDS011;38455;52.710;6.502;2023-07-02T00:19:55;6.55;;;4.47;;
52554;SDS011;38455;52.710;6.502;2023-07-02T00:22:20;9.63;;;5.47;;
52554;SDS011;38455;52.710;6.502;2023-07-02T00:24:46;9.88;;;4.93;;
52554;SDS011;38455;52.710;6.502;2023-07-02T00:27:12;10.40;;;5.63;;
52554;SDS011;38455;52.710;6.502;2023-07-02T00:29:38;12.27;;;5.63;;
52554;SDS011;38455;52.710;6.502;2023-07-02T00:32:03;8.25;;;4.50;;
52554;SDS011;38455;52.710;6.502;2023-07-02T00:34:30;8.73;;;5.05;;
52554;SDS011;38455;52.710;6.502;2023-07-02T00:36:55;9.32;;;5.82;;
52554;SDS011;38455;52.710;6.502;2023-07-02T00:39:21;10.18;;;5.40;;
52554;SDS011;38455;52.710;6.502;2023-07-02T00:41:47;9.60;;;5.18;;
52554;SDS011;38455;52.710;6.502;2023-07-02T00:44:13;8.20;;;5.40;;
52554;SDS011;38455;52.710;6.502;2023-07-02T00:46:39;11.10;;;5.05;;
52554;SDS011;38455;52.710;6.502;2023-07-02T00:49:05;8.18;;;4.95;;
52554;SDS011;38455;52.710;6.502;2023-07-02T00:51:33;12.25;;;5.65;;
52554;SDS011;38455;52.710;6.502;2023-07-02T00:53:59;12.88;;;6.03;;
52554;SDS011;38455;52.710;6.502;2023-07-02T00:56:25;10.13;;;5.38;;
52554;SDS011;38455;52.710;6.502;2023-07-02T00:58:53;13.15;;;5.45;;
52554;SDS011;38455;52.710;6.502;2023-07-02T01:01:23;13.13;;;6.82;;
52554;SDS011;38455;52.710;6.502;2023-07-02T01:06:24;14.23;;;4.97;;
52554;SDS011;38455;52.710;6.502;2023-07-02T01:08:56;11.47;;;5.33;;
52554;SDS011;38455;52.710;6.502;2023-07-02T01:11:32;14.05;;;5.43;;
52554;SDS011;38455;52.710;6.502;2023-07-02T01:14:20;18.40;;;5.78;;
52554;SDS011;38455;52.710;6.502;2023-07-02T01:16:55;13.57;;;5.55;;
52554;SDS011;38455;52.710;6.502;2023-07-02T01:19:43;8.60;;;4.63;;
52554;SDS011;38455;52.710;6.502;2023-07-02T01:22:20;13.48;;;6.05;;
52554;SDS011;38455;52.710;6.502;2023-07-02T01:24:47;14.90;;;5.43;;
52554;SDS011;38455;52.710;6.502;2023-07-02T01:27:14;17.83;;;5.35;;
52554;SDS011;38455;52.710;6.502;2023-07-02T01:29:40;16.35;;;6.07;;
52554;SDS011;38455;52.710;6.502;2023-07-02T01:32:07;14.38;;;6.05;;
52554;SDS011;38455;52.710;6.502;2023-07-02T01:34:33;16.35;;;6.25;;
52554;SDS011;38455;52.710;6.502;2023-07-02T01:36:59;15.35;;;6.25;;
52554;SDS011;38455;52.710;6.502;2023-07-02T01:39:26;18.42;;;7.22;;
52554;SDS011;38455;52.710;6.502;2023-07-02T01:41:53;17.90;;;6.25;;
52554;SDS011;38455;52.710;6.502;2023-07-02T01:44:42;20.48;;;6.90;;
52554;SDS011;38455;52.710;6.502;2023-07-02T01:47:09;21.65;;;7.05;;
52554;SDS011;38455;52.710;6.502;2023-07-02T01:49:34;18.27;;;7.03;;
52554;SDS011;38455;52.710;6.502;2023-07-02T01:52:01;20.40;;;7.00;;
52554;SDS011;38455;52.710;6.502;2023-07-02T01:54:27;23.20;;;7.75;;
52554;SDS011;38455;52.710;6.502;2023-07-02T01:56:54;19.80;;;7.80;;
52554;SDS011;38455;52.710;6.502;2023-07-02T01:59:20;21.85;;;7.78;;
52554;SDS011;38455;52.710;6.502;2023-07-02T02:01:45;25.90;;;8.18;;
52554;SDS011;38455;52.710;6.502;2023-07-02T02:04:11;18.02;;;6.65;;
52554;SDS011;38455;52.710;6.502;2023-07-02T02:06:38;27.70;;;6.97;;
52554;SDS011;38455;52.710;6.502;2023-07-02T02:09:04;22.48;;;7.03;;
52554;SDS011;38455;52.710;6.502;2023-07-02T02:11:31;20.83;;;7.03;;
52554;SDS011;38455;52.710;6.502;2023-07-02T02:13:58;18.40;;;7.40;;
52554;SDS011;38455;52.710;6.502;2023-07-02T02:16:23;17.48;;;7.38;;
52554;SDS011;38455;52.710;6.502;2023-07-02T02:18:49;21.95;;;8.05;;
52554;SDS011;38455;52.710;6.502;2023-07-02T02:21:18;18.33;;;7.45;;
52554;SDS011;38455;52.710;6.502;2023-07-02T02:23:44;20.98;;;7.97;;
52554;SDS011;38455;52.710;6.502;2023-07-02T02:26:10;22.95;;;7.22;;
52554;SDS011;38455;52.710;6.502;2023-07-02T02:28:36;19.05;;;7.03;;
52554;SDS011;38455;52.710;6.502;2023-07-02T02:31:02;26.15;;;7.45;;
52554;SDS011;38455;52.710;6.502;2023-07-02T02:33:28;16.23;;;6.72;;
52554;SDS011;38455;52.710;6.502;2023-07-02T02:35:54;20.77;;;7.25;;
52554;SDS011;38455;52.710;6.502;2023-07-02T02:38:19;27.65;;;8.52;;
52554;SDS011;38455;52.710;6.502;2023-07-02T02:40:45;19.60;;;8.30;;
52554;SDS011;38455;52.710;6.502;2023-07-02T02:43:11;22.10;;;8.07;;
52554;SDS011;38455;52.710;6.502;2023-07-02T02:45:37;19.88;;;7.65;;
52554;SDS011;38455;52.710;6.502;2023-07-02T02:48:03;24.88;;;7.72;;
52554;SDS011;38455;52.710;6.502;2023-07-02T02:50:29;19.27;;;7.47;;
52554;SDS011;38455;52.710;6.502;2023-07-02T02:52:55;21.13;;;8.23;;
52554;SDS011;38455;52.710;6.502;2023-07-02T02:55:20;24.83;;;7.68;;
52554;SDS011;38455;52.710;6.502;2023-07-02T02:57:46;25.15;;;8.48;;
52554;SDS011;38455;52.710;6.502;2023-07-02T03:00:12;22.52;;;8.63;;
52554;SDS011;38455;52.710;6.502;2023-07-02T03:02:38;26.52;;;9.38;;
52554;SDS011;38455;52.710;6.502;2023-07-02T03:05:04;23.05;;;7.90;;
52554;SDS011;38455;52.710;6.502;2023-07-02T03:07:31;26.42;;;8.57;;
52554;SDS011;38455;52.710;6.502;2023-07-02T03:09:57;27.23;;;8.52;;
52554;SDS011;38455;52.710;6.502;2023-07-02T03:12:25;27.38;;;7.97;;
52554;SDS011;38455;52.710;6.502;2023-07-02T03:14:51;19.27;;;8.27;;
52554;SDS011;38455;52.710;6.502;2023-07-02T03:17:22;23.77;;;9.10;;
52554;SDS011;38455;52.710;6.502;2023-07-02T03:19:47;18.83;;;8.07;;
52554;SDS011;38455;52.710;6.502;2023-07-02T03:22:13;31.05;;;9.68;;
52554;SDS011;38455;52.710;6.502;2023-07-02T03:24:39;25.35;;;8.68;;
52554;SDS011;38455;52.710;6.502;2023-07-02T03:27:05;31.23;;;9.40;;
52554;SDS011;38455;52.710;6.502;2023-07-02T03:29:32;19.15;;;7.57;;
52554;SDS011;38455;52.710;6.502;2023-07-02T03:32:03;28.52;;;9.60;;
52554;SDS011;38455;52.710;6.502;2023-07-02T03:34:29;22.17;;;9.05;;
52554;SDS011;38455;52.710;6.502;2023-07-02T03:36:55;22.95;;;8.43;;
52554;SDS011;38455;52.710;6.502;2023-07-02T03:39:21;23.65;;;7.88;;
52554;SDS011;38455;52.710;6.502;2023-07-02T03:41:47;23.73;;;8.27;;
52554;SDS011;38455;52.710;6.502;2023-07-02T03:44:12;31.58;;;11.50;;
52554;SDS011;38455;52.710;6.502;2023-07-02T03:46:38;21.90;;;8.80;;
52554;SDS011;38455;52.710;6.502;2023-07-02T03:49:04;22.40;;;8.52;;
52554;SDS011;38455;52.710;6.502;2023-07-02T03:51:30;22.55;;;7.95;;
52554;SDS011;38455;52.710;6.502;2023-07-02T03:53:57;22.58;;;8.32;;
52554;SDS011;38455;52.710;6.502;2023-07-02T03:56:23;25.58;;;7.80;;
52554;SDS011;38455;52.710;6.502;2023-07-02T03:58:49;25.60;;;8.20;;
52554;SDS011;38455;52.710;6.502;2023-07-02T04:01:15;26.27;;;8.07;;
52554;SDS011;38455;52.710;6.502;2023-07-02T04:03:42;28.13;;;8.55;;
52554;SDS011;38455;52.710;6.502;2023-07-02T04:06:14;22.00;;;8.65;;
52554;SDS011;38455;52.710;6.502;2023-07-02T04:08:41;22.98;;;7.90;;
52554;SDS011;38455;52.710;6.502;2023-07-02T04:11:06;23.92;;;8.20;;
52554;SDS011;38455;52.710;6.502;2023-07-02T04:13:32;22.80;;;8.35;;
52554;SDS011;38455;52.710;6.502;2023-07-02T04:15:58;20.95;;;7.45;;
52554;SDS011;38455;52.710;6.502;2023-07-02T04:18:23;21.77;;;8.15;;
52554;SDS011;38455;52.710;6.502;2023-07-02T04:20:49;22.23;;;8.63;;
52554;SDS011;38455;52.710;6.502;2023-07-02T04:23:15;24.58;;;7.95;;
52554;SDS011;38455;52.710;6.502;2023-07-02T04:25:41;26.42;;;8.30;;
52554;SDS011;38455;52.710;6.502;2023-07-02T04:28:07;21.40;;;7.63;;
52554;SDS011;38455;52.710;6.502;2023-07-02T04:30:33;25.65;;;7.68;;
52554;SDS011;38455;52.710;6.502;2023-07-02T04:32:59;24.17;;;8.00;;
52554;SDS011;38455;52.710;6.502;2023-07-02T04:35:25;27.08;;;8.45;;
52554;SDS011;38455;52.710;6.502;2023-07-02T04:37:51;22.77;;;8.50;;
52554;SDS011;38455;52.710;6.502;2023-07-02T04:40:16;20.77;;;8.82;;
52554;SDS011;38455;52.710;6.502;2023-07-02T04:42:42;27.42;;;8.60;;
52554;SDS011;38455;52.710;6.502;2023-07-02T04:45:12;22.65;;;8.52;;
52554;SDS011;38455;52.710;6.502;2023-07-02T04:47:40;35.05;;;8.23;;
52554;SDS011;38455;52.710;6.502;2023-07-02T04:50:09;26.58;;;7.60;;
52554;SDS011;38455;52.710;6.502;2023-07-02T04:52:35;29.40;;;8.52;;
52554;SDS011;38455;52.710;6.502;2023-07-02T04:55:01;24.90;;;7.65;;
52554;SDS011;38455;52.710;6.502;2023-07-02T04:57:28;23.50;;;8.30;;
52554;SDS011;38455;52.710;6.502;2023-07-02T04:59:54;24.27;;;8.15;;
52554;SDS011;38455;52.710;6.502;2023-07-02T05:02:19;23.42;;;7.30;;
52554;SDS011;38455;52.710;6.502;2023-07-02T05:04:45;26.92;;;8.18;;
52554;SDS011;38455;52.710;6.502;2023-07-02T05:07:11;25.33;;;7.72;;
52554;SDS011;38455;52.710;6.502;2023-07-02T05:09:36;20.42;;;8.00;;
52554;SDS011;38455;52.710;6.502;2023-07-02T05:12:02;23.92;;;8.00;;
52554;SDS011;38455;52.710;6.502;2023-07-02T05:14:28;21.65;;;8.20;;
52554;SDS011;38455;52.710;6.502;2023-07-02T05:16:54;26.55;;;7.82;;
52554;SDS011;38455;52.710;6.502;2023-07-02T05:19:20;19.15;;;8.07;;
52554;SDS011;38455;52.710;6.502;2023-07-02T05:21:45;20.40;;;7.70;;
52554;SDS011;38455;52.710;6.502;2023-07-02T05:24:11;21.63;;;8.65;;
52554;SDS011;38455;52.710;6.502;2023-07-02T05:26:37;25.65;;;7.70;;
52554;SDS011;38455;52.710;6.502;2023-07-02T05:29:02;21.05;;;7.47;;
52554;SDS011;38455;52.710;6.502;2023-07-02T05:31:28;22.55;;;8.02;;
52554;SDS011;38455;52.710;6.502;2023-07-02T05:33:54;19.85;;;7.13;;
52554;SDS011;38455;52.710;6.502;2023-07-02T05:36:20;13.45;;;6.93;;
52554;SDS011;38455;52.710;6.502;2023-07-02T05:38:46;18.92;;;7.53;;
52554;SDS011;38455;52.710;6.502;2023-07-02T05:41:17;17.15;;;7.15;;
52554;SDS011;38455;52.710;6.502;2023-07-02T05:43:44;16.98;;;6.90;;
52554;SDS011;38455;52.710;6.502;2023-07-02T05:46:09;23.20;;;7.82;;
52554;SDS011;38455;52.710;6.502;2023-07-02T05:48:35;25.30;;;7.93;;
52554;SDS011;38455;52.710;6.502;2023-07-02T05:51:01;17.90;;;7.22;;
52554;SDS011;38455;52.710;6.502;2023-07-02T05:53:27;18.25;;;6.80;;
52554;SDS011;38455;52.710;6.502;2023-07-02T05:55:53;21.95;;;6.95;;
52554;SDS011;38455;52.710;6.502;2023-07-02T05:58:19;17.83;;;7.05;;
52554;SDS011;38455;52.710;6.502;2023-07-02T06:00:44;16.33;;;6.03;;
52554;SDS011;38455;52.710;6.502;2023-07-02T06:03:14;18.42;;;7.18;;
52554;SDS011;38455;52.710;6.502;2023-07-02T06:05:47;23.08;;;7.68;;
52554;SDS011;38455;52.710;6.502;2023-07-02T06:08:17;17.63;;;6.60;;
52554;SDS011;38455;52.710;6.502;2023-07-02T06:10:43;20.02;;;7.38;;
52554;SDS011;38455;52.710;6.502;2023-07-02T06:13:12;18.80;;;7.70;;
52554;SDS011;38455;52.710;6.502;2023-07-02T06:15:38;22.08;;;7.85;;
52554;SDS011;38455;52.710;6.502;2023-07-02T06:18:04;26.20;;;7.97;;
52554;SDS011;38455;52.710;6.502;2023-07-02T06:20:30;22.98;;;6.45;;
52554;SDS011;38455;52.710;6.502;2023-07-02T06:22:56;20.50;;;6.75;;
52554;SDS011;38455;52.710;6.502;2023-07-02T06:25:22;20.23;;;7.78;;
52554;SDS011;38455;52.710;6.502;2023-07-02T06:27:50;20.58;;;6.60;;
52554;SDS011;38455;52.710;6.502;2023-07-02T06:30:16;19.60;;;7.45;;
52554;SDS011;38455;52.710;6.502;2023-07-02T06:32:42;23.65;;;7.10;;
52554;SDS011;38455;52.710;6.502;2023-07-02T06:35:08;17.75;;;7.90;;
52554;SDS011;38455;52.710;6.502;2023-07-02T06:37:34;15.48;;;6.10;;
52554;SDS011;38455;52.710;6.502;2023-07-02T06:39:59;17.42;;;6.15;;
52554;SDS011;38455;52.710;6.502;2023-07-02T06:42:25;17.98;;;6.03;;
52554;SDS011;38455;52.710;6.502;2023-07-02T06:44:51;14.18;;;6.35;;
52554;SDS011;38455;52.710;6.502;2023-07-02T06:47:17;31.27;;;7.38;;
52554;SDS011;38455;52.710;6.502;2023-07-02T06:49:42;22.00;;;6.90;;
52554;SDS011;38455;52.710;6.502;2023-07-02T06:52:08;18.40;;;6.18;;
52554;SDS011;38455;52.710;6.502;2023-07-02T06:54:34;15.20;;;5.85;;
52554;SDS011;38455;52.710;6.502;2023-07-02T06:57:00;15.95;;;6.35;;
52554;SDS011;38455;52.710;6.502;2023-07-02T06:59:26;15.85;;;5.75;;
52554;SDS011;38455;52.710;6.502;2023-07-02T07:01:52;14.73;;;5.70;;
52554;SDS011;38455;52.710;6.502;2023-07-02T07:04:18;14.80;;;5.88;;
52554;SDS011;38455;52.710;6.502;2023-07-02T07:06:44;15.52;;;5.75;;
52554;SDS011;38455;52.710;6.502;2023-07-02T07:09:09;16.45;;;5.63;;
52554;SDS011;38455;52.710;6.502;2023-07-02T07:11:35;18.30;;;6.63;;
52554;SDS011;38455;52.710;6.502;2023-07-02T07:14:01;13.95;;;5.53;;
52554;SDS011;38455;52.710;6.502;2023-07-02T07:16:27;14.15;;;5.75;;
52554;SDS011;38455;52.710;6.502;2023-07-02T07:18:52;13.43;;;5.65;;
52554;SDS011;38455;52.710;6.502;2023-07-02T07:21:18;15.35;;;5.68;;
52554;SDS011;38455;52.710;6.502;2023-07-02T07:23:44;11.23;;;5.22;;
52554;SDS011;38455;52.710;6.502;2023-07-02T07:26:10;17.67;;;5.38;;
52554;SDS011;38455;52.710;6.502;2023-07-02T07:28:35;16.67;;;5.88;;
52554;SDS011;38455;52.710;6.502;2023-07-02T07:31:01;15.43;;;5.55;;
52554;SDS011;38455;52.710;6.502;2023-07-02T07:33:27;18.00;;;5.45;;
52554;SDS011;38455;52.710;6.502;2023-07-02T07:35:53;12.70;;;5.25;;
52554;SDS011;38455;52.710;6.502;2023-07-02T07:38:18;15.27;;;5.82;;
52554;SDS011;38455;52.710;6.502;2023-07-02T07:40:44;14.68;;;5.03;;
52554;SDS011;38455;52.710;6.502;2023-07-02T07:43:10;12.07;;;5.22;;
52554;SDS011;38455;52.710;6.502;2023-07-02T07:45:39;14.70;;;4.78;;
52554;SDS011;38455;52.710;6.502;2023-07-02T07:48:05;11.57;;;4.35;;
52554;SDS011;38455;52.710;6.502;2023-07-02T07:50:31;14.35;;;4.80;;
52554;SDS011;38455;52.710;6.502;2023-07-02T07:52:56;11.52;;;4.70;;
52554;SDS011;38455;52.710;6.502;2023-07-02T07:55:23;12.73;;;4.60;;
52554;SDS011;38455;52.710;6.502;2023-07-02T07:57:49;14.93;;;4.75;;
52554;SDS011;38455;52.710;6.502;2023-07-02T08:00:15;13.90;;;4.95;;
52554;SDS011;38455;52.710;6.502;2023-07-02T08:02:42;13.27;;;4.63;;
52554;SDS011;38455;52.710;6.502;2023-07-02T08:05:08;12.70;;;4.40;;
52554;SDS011;38455;52.710;6.502;2023-07-02T08:07:34;14.30;;;4.15;;
52554;SDS011;38455;52.710;6.502;2023-07-02T08:10:00;11.90;;;4.20;;
52554;SDS011;38455;52.710;6.502;2023-07-02T08:12:27;14.52;;;4.18;;
52554;SDS011;38455;52.710;6.502;2023-07-02T08:14:55;10.63;;;3.20;;
52554;SDS011;38455;52.710;6.502;2023-07-02T08:17:21;9.68;;;3.30;;
52554;SDS011;38455;52.710;6.502;2023-07-02T08:19:46;9.68;;;3.33;;
52554;SDS011;38455;52.710;6.502;2023-07-02T08:22:12;12.38;;;3.75;;
52554;SDS011;38455;52.710;6.502;2023-07-02T08:24:38;11.60;;;3.38;;
52554;SDS011;38455;52.710;6.502;2023-07-02T08:27:04;8.43;;;3.45;;
52554;SDS011;38455;52.710;6.502;2023-07-02T08:29:30;13.65;;;3.83;;
52554;SDS011;38455;52.710;6.502;2023-07-02T08:31:58;8.93;;;3.42;;
52554;SDS011;38455;52.710;6.502;2023-07-02T08:34:24;6.03;;;3.05;;
52554;SDS011;38455;52.710;6.502;2023-07-02T08:36:50;9.05;;;3.03;;
52554;SDS011;38455;52.710;6.502;2023-07-02T08:39:16;7.78;;;3.47;;
52554;SDS011;38455;52.710;6.502;2023-07-02T08:41:46;8.43;;;2.78;;
52554;SDS011;38455;52.710;6.502;2023-07-02T08:44:13;4.38;;;2.20;;
52554;SDS011;38455;52.710;6.502;2023-07-02T08:46:40;5.32;;;2.25;;
52554;SDS011;38455;52.710;6.502;2023-07-02T08:49:07;5.72;;;2.35;;
52554;SDS011;38455;52.710;6.502;2023-07-02T08:51:33;7.20;;;2.30;;
52554;SDS011;38455;52.710;6.502;2023-07-02T08:54:00;7.80;;;2.65;;
52554;SDS011;38455;52.710;6.502;2023-07-02T08:56:26;6.00;;;2.58;;
52554;SDS011;38455;52.710;6.502;2023-07-02T08:58:52;8.30;;;3.22;;
52554;SDS011;38455;52.710;6.502;2023-07-02T09:01:18;8.07;;;3.22;;
52554;SDS011;38455;52.710;6.502;2023-07-02T09:03:44;9.60;;;3.83;;
52554;SDS011;38455;52.710;6.502;2023-07-02T09:06:10;9.77;;;3.03;;
52554;SDS011;38455;52.710;6.502;2023-07-02T09:08:37;11.27;;;3.60;;
52554;SDS011;38455;52.710;6.502;2023-07-02T09:11:10;7.68;;;3.00;;
52554;SDS011;38455;52.710;6.502;2023-07-02T09:13:50;8.23;;;3.15;;
52554;SDS011;38455;52.710;6.502;2023-07-02T09:21:47;13.95;;;4.25;;
52554;SDS011;38455;52.710;6.502;2023-07-02T09:24:23;13.88;;;4.40;;
52554;SDS011;38455;52.710;6.502;2023-07-02T09:26:49;11.77;;;4.43;;
52554;SDS011;38455;52.710;6.502;2023-07-02T09:32:01;12.13;;;4.05;;
52554;SDS011;38455;52.710;6.502;2023-07-02T09:34:33;11.02;;;4.07;;
52554;SDS011;38455;52.710;6.502;2023-07-02T09:37:00;12.65;;;3.80;;
52554;SDS011;38455;52.710;6.502;2023-07-02T09:39:31;11.70;;;3.80;;
52554;SDS011;38455;52.710;6.502;2023-07-02T09:41:59;11.93;;;4.38;;
52554;SDS011;38455;52.710;6.502;2023-07-02T09:44:29;13.60;;;5.05;;
52554;SDS011;38455;52.710;6.502;2023-07-02T09:46:57;13.15;;;4.30;;
52554;SDS011;38455;52.710;6.502;2023-07-02T09:49:23;16.83;;;4.13;;
52554;SDS011;38455;52.710;6.502;2023-07-02T09:51:50;12.02;;;4.38;;
52554;SDS011;38455;52.710;6.502;2023-07-02T09:54:16;9.27;;;4.10;;
52554;SDS011;38455;52.710;6.502;2023-07-02T09:56:45;13.55;;;3.90;;
52554;SDS011;38455;52.710;6.502;2023-07-02T09:59:11;12.70;;;4.03;;
52554;SDS011;38455;52.710;6.502;2023-07-02T10:01:38;7.28;;;2.88;;
52554;SDS011;38455;52.710;6.502;2023-07-02T10:04:11;12.13;;;3.60;;
52554;SDS011;38455;52.710;6.502;2023-07-02T10:06:58;9.32;;;4.10;;
52554;SDS011;38455;52.710;6.502;2023-07-02T10:14:50;11.95;;;3.22;;
52554;SDS011;38455;52.710;6.502;2023-07-02T10:17:23;9.68;;;3.95;;
52554;SDS011;38455;52.710;6.502;2023-07-02T10:19:51;10.20;;;3.85;;
52554;SDS011;38455;52.710;6.502;2023-07-02T10:22:18;10.73;;;3.80;;
52554;SDS011;38455;52.710;6.502;2023-07-02T10:24:54;10.85;;;3.53;;
52554;SDS011;38455;52.710;6.502;2023-07-02T10:27:34;12.95;;;3.45;;
52554;SDS011;38455;52.710;6.502;2023-07-02T10:30:02;10.75;;;3.72;;
52554;SDS011;38455;52.710;6.502;2023-07-02T10:32:29;8.32;;;3.10;;
52554;SDS011;38455;52.710;6.502;2023-07-02T10:34:55;8.65;;;3.22;;
52554;SDS011;38455;52.710;6.502;2023-07-02T10:37:21;9.57;;;3.88;;
52554;SDS011;38455;52.710;6.502;2023-07-02T10:39:47;7.47;;;2.92;;
52554;SDS011;38455;52.710;6.502;2023-07-02T10:42:12;9.45;;;3.10;;
52554;SDS011;38455;52.710;6.502;2023-07-02T10:44:49;12.13;;;3.47;;
52554;SDS011;38455;52.710;6.502;2023-07-02T10:47:16;8.07;;;3.25;;
52554;SDS011;38455;52.710;6.502;2023-07-02T10:49:42;8.57;;;3.33;;
52554;SDS011;38455;52.710;6.502;2023-07-02T10:52:08;14.80;;;3.65;;
52554;SDS011;38455;52.710;6.502;2023-07-02T10:54:40;8.45;;;3.20;;
52554;SDS011;38455;52.710;6.502;2023-07-02T10:57:07;5.57;;;2.70;;
52554;SDS011;38455;52.710;6.502;2023-07-02T10:59:33;10.35;;;3.00;;
52554;SDS011;38455;52.710;6.502;2023-07-02T11:01:59;7.45;;;2.75;;
52554;SDS011;38455;52.710;6.502;2023-07-02T11:04:27;8.43;;;3.50;;
52554;SDS011;38455;52.710;6.502;2023-07-02T11:06:53;7.60;;;3.13;;
52554;SDS011;38455;52.710;6.502;2023-07-02T11:09:19;9.25;;;3.40;;
52554;SDS011;38455;52.710;6.502;2023-07-02T11:11:53;8.15;;;2.60;;
52554;SDS011;38455;52.710;6.502;2023-07-02T11:14:41;11.25;;;3.17;;
52554;SDS011;38455;52.710;6.502;2023-07-02T11:17:06;7.07;;;2.35;;
52554;SDS011;38455;52.710;6.502;2023-07-02T11:19:32;9.88;;;3.17;;
52554;SDS011;38455;52.710;6.502;2023-07-02T11:21:59;8.05;;;3.00;;
52554;SDS011;38455;52.710;6.502;2023-07-02T11:24:32;9.50;;;3.20;;
52554;SDS011;38455;52.710;6.502;2023-07-02T11:26:59;8.43;;;2.88;;
52554;SDS011;38455;52.710;6.502;2023-07-02T11:29:28;9.23;;;3.10;;
52554;SDS011;38455;52.710;6.502;2023-07-02T11:31:54;7.32;;;2.90;;
52554;SDS011;38455;52.710;6.502;2023-07-02T11:34:29;10.75;;;3.55;;
52554;SDS011;38455;52.710;6.502;2023-07-02T11:36:54;9.98;;;3.05;;
52554;SDS011;38455;52.710;6.502;2023-07-02T11:39:20;9.40;;;3.75;;
52554;SDS011;38455;52.710;6.502;2023-07-02T11:41:47;7.97;;;2.92;;
52554;SDS011;38455;52.710;6.502;2023-07-02T11:44:13;8.73;;;2.63;;
52554;SDS011;38455;52.710;6.502;2023-07-02T11:46:40;9.10;;;3.05;;
52554;SDS011;38455;52.710;6.502;2023-07-02T11:49:06;9.30;;;2.75;;
52554;SDS011;38455;52.710;6.502;2023-07-02T11:51:37;7.55;;;2.85;;
52554;SDS011;38455;52.710;6.502;2023-07-02T11:54:11;10.40;;;3.30;;
52554;SDS011;38455;52.710;6.502;2023-07-02T11:56:37;8.43;;;2.95;;
52554;SDS011;38455;52.710;6.502;2023-07-02T11:59:03;6.78;;;2.50;;
52554;SDS011;38455;52.710;6.502;2023-07-02T12:01:29;8.63;;;2.90;;
52554;SDS011;38455;52.710;6.502;2023-07-02T12:03:54;7.05;;;2.65;;
52554;SDS011;38455;52.710;6.502;2023-07-02T12:06:20;13.52;;;3.42;;
52554;SDS011;38455;52.710;6.502;2023-07-02T12:08:46;10.85;;;2.60;;
52554;SDS011;38455;52.710;6.502;2023-07-02T12:11:11;6.68;;;2.50;;
52554;SDS011;38455;52.710;6.502;2023-07-02T12:13:37;11.93;;;2.97;;
52554;SDS011;38455;52.710;6.502;2023-07-02T12:16:03;8.35;;;2.75;;
52554;SDS011;38455;52.710;6.502;2023-07-02T12:18:28;8.07;;;2.55;;
52554;SDS011;38455;52.710;6.502;2023-07-02T12:20:54;7.63;;;2.85;;
52554;SDS011;38455;52.710;6.502;2023-07-02T12:23:20;6.82;;;2.40;;
52554;SDS011;38455;52.710;6.502;2023-07-02T12:25:45;7.20;;;2.70;;
52554;SDS011;38455;52.710;6.502;2023-07-02T12:28:11;4.70;;;2.40;;
52554;SDS011;38455;52.710;6.502;2023-07-02T12:30:37;9.52;;;2.78;;
52554;SDS011;38455;52.710;6.502;2023-07-02T12:33:02;7.28;;;3.42;;
52554;SDS011;38455;52.710;6.502;2023-07-02T12:35:28;13.07;;;3.17;;
52554;SDS011;38455;52.710;6.502;2023-07-02T12:37:54;7.55;;;2.55;;
52554;SDS011;38455;52.710;6.502;2023-07-02T12:40:20;7.07;;;2.70;;
52554;SDS011;38455;52.710;6.502;2023-07-02T12:42:46;10.02;;;2.53;;
52554;SDS011;38455;52.710;6.502;2023-07-02T12:45:13;16.35;;;3.97;;
52554;SDS011;38455;52.710;6.502;2023-07-02T12:47:40;8.25;;;2.80;;
52554;SDS011;38455;52.710;6.502;2023-07-02T12:50:07;6.47;;;2.75;;
52554;SDS011;38455;52.710;6.502;2023-07-02T12:52:34;9.77;;;3.15;;
52554;SDS011;38455;52.710;6.502;2023-07-02T12:55:00;12.40;;;2.55;;
52554;SDS011;38455;52.710;6.502;2023-07-02T12:57:26;6.35;;;2.55;;
52554;SDS011;38455;52.710;6.502;2023-07-02T12:59:55;7.15;;;2.65;;
52554;SDS011;38455;52.710;6.502;2023-07-02T13:02:24;7.15;;;2.78;;
52554;SDS011;38455;52.710;6.502;2023-07-02T13:04:50;12.18;;;3.00;;
52554;SDS011;38455;52.710;6.502;2023-07-02T13:07:16;7.85;;;2.97;;
52554;SDS011;38455;52.710;6.502;2023-07-02T13:09:42;6.78;;;3.22;;
52554;SDS011;38455;52.710;6.502;2023-07-02T13:12:08;8.57;;;3.38;;
52554;SDS011;38455;52.710;6.502;2023-07-02T13:14:35;9.38;;;3.85;;
52554;SDS011;38455;52.710;6.502;2023-07-02T13:17:01;7.85;;;3.33;;
52554;SDS011;38455;52.710;6.502;2023-07-02T13:19:30;10.73;;;3.30;;
52554;SDS011;38455;52.710;6.502;2023-07-02T13:21:55;6.10;;;2.83;;
52554;SDS011;38455;52.710;6.502;2023-07-02T13:24:21;7.53;;;3.10;;
52554;SDS011;38455;52.710;6.502;2023-07-02T13:26:47;6.85;;;3.10;;
52554;SDS011;38455;52.710;6.502;2023-07-02T13:29:13;8.20;;;3.63;;
52554;SDS011;38455;52.710;6.502;2023-07-02T13:31:39;17.45;;;3.05;;
52554;SDS011;38455;52.710;6.502;2023-07-02T13:34:05;7.28;;;3.42;;
52554;SDS011;38455;52.710;6.502;2023-07-02T13:36:30;16.15;;;4.00;;
52554;SDS011;38455;52.710;6.502;2023-07-02T13:38:56;6.95;;;3.25;;
52554;SDS011;38455;52.710;6.502;2023-07-02T13:41:22;8.60;;;3.25;;
52554;SDS011;38455;52.710;6.502;2023-07-02T13:43:47;8.52;;;3.40;;
52554;SDS011;38455;52.710;6.502;2023-07-02T13:46:13;10.20;;;4.13;;
52554;SDS011;38455;52.710;6.502;2023-07-02T13:48:39;9.05;;;3.42;;
52554;SDS011;38455;52.710;6.502;2023-07-02T13:51:05;6.07;;;3.47;;
52554;SDS011;38455;52.710;6.502;2023-07-02T13:53:32;6.80;;;3.25;;
52554;SDS011;38455;52.710;6.502;2023-07-02T13:55:58;7.70;;;3.40;;
52554;SDS011;38455;52.710;6.502;2023-07-02T13:58:23;13.35;;;3.78;;
52554;SDS011;38455;52.710;6.502;2023-07-02T14:00:49;10.30;;;3.90;;
52554;SDS011;38455;52.710;6.502;2023-07-02T14:03:15;7.97;;;3.47;;
52554;SDS011;38455;52.710;6.502;2023-07-02T14:05:40;10.55;;;3.85;;
52554;SDS011;38455;52.710;6.502;2023-07-02T14:08:06;8.48;;;3.30;;
52554;SDS011;38455;52.710;6.502;2023-07-02T14:10:32;9.93;;;4.05;;
52554;SDS011;38455;52.710;6.502;2023-07-02T14:12:58;7.15;;;3.47;;
52554;SDS011;38455;52.710;6.502;2023-07-02T14:15:24;10.30;;;3.67;;
52554;SDS011;38455;52.710;6.502;2023-07-02T14:17:50;8.77;;;3.63;;
52554;SDS011;38455;52.710;6.502;2023-07-02T14:20:16;9.23;;;3.50;;
52554;SDS011;38455;52.710;6.502;2023-07-02T14:22:42;11.38;;;3.40;;
52554;SDS011;38455;52.710;6.502;2023-07-02T14:25:08;10.38;;;3.70;;
52554;SDS011;38455;52.710;6.502;2023-07-02T14:27:34;9.57;;;3.22;;
52554;SDS011;38455;52.710;6.502;2023-07-02T14:29:59;8.82;;;3.38;;
52554;SDS011;38455;52.710;6.502;2023-07-02T14:32:27;11.55;;;3.67;;
52554;SDS011;38455;52.710;6.502;2023-07-02T14:34:53;9.38;;;3.35;;
52554;SDS011;38455;52.710;6.502;2023-07-02T14:37:19;8.68;;;3.47;;
52554;SDS011;38455;52.710;6.502;2023-07-02T14:39:44;10.43;;;4.03;;
52554;SDS011;38455;52.710;6.502;2023-07-02T14:42:10;7.88;;;3.90;;
52554;SDS011;38455;52.710;6.502;2023-07-02T14:44:35;8.25;;;3.20;;
52554;SDS011;38455;52.710;6.502;2023-07-02T14:47:01;12.00;;;3.80;;
52554;SDS011;38455;52.710;6.502;2023-07-02T14:49:27;8.90;;;3.58;;
52554;SDS011;38455;52.710;6.502;2023-07-02T14:51:53;8.32;;;3.47;;